source [weather.noaa.gov]
TAF EDDP 221700Z 2218/2318 24010KT CAVOK BECMG 2305/2308 17005KT TEMPO 2310/2312 RA BKN012

TAF EDDC 221700Z 2218/2318 23007KT 9999 SCT040 BECMG 2304/2306 16006KT BECMG 2312/2316 02007KT 4000 RA BECMG 2316/2318 BKN012

TAF TAF EDDE 221700Z 2218/2318 24010KT 9999 SCT030 PROB30 TEMPO 2305/2307 RA BECMG 2305/2308 16005KT TEMPO 2307/2318 4000 RA BKN008 BECMG 2309/2312 05007KT PROB30 TEMPO 2312/2316 TSRA BKN015CB BECMG 2315/2318 35010KT